Aeroporto :
LOGIN :

Iscrizione | Disclaimer

   EN    FR    IT 

 










Sommario :    VFR   VFR Marginale   IFR   IFR Intensivo   IFR Molto Intensivo
Visibilità : 
Base nubi : 
>= 8 km
>= 3000ft
5 / 8 km
1000 / 3000 ft
1500m / 5 km
500 / 1000 ft
800 / 1500m
200 / 500 ft
< 800m
< 200 ft
Simboli :   Temporali  Nebbia  Neve Forte  Precipitazioni Forti  Vento > 20 kt
SIGMETs :   Varie  Temporali  Ghiacco  Turbolenza  Onda orograficha  Ceneri Vulcaniche






- Altitudine del aeroporto : 287 ft


LFRL - Lanveoc Poulmic

ULTIMO METAR :
  • 072130Z AUTO 21015KT 9999 OVC015 11/09 Q1015

METARs OBSOLETI :
  • 072100Z AUTO 21013KT 9999 BKN019 11/08 Q1016
  • 072030Z AUTO 21013KT 9999 OVC020 11/08 Q1016
  • 072000Z AUTO 21014KT 9999 OVC021 11/08 Q1016
  • 071930Z AUTO 20009KT 9999 FEW023 10/08 Q1016
  • 071900Z AUTO 20009KT CAVOK 10/07 Q1016

Previsioni scadute.



MetMap, La meteo Aeronautica in un colpo d'occhio ! - Copyright ORBIFLY Dicembre 2007 - Disclaimer

ORBIFLY MET'MAP TEAM :

Programmazione e sviluppo : Alexandra Zaïnal
Concezione : Baudouin d'Aumeries
Aiuto per la programmazione : Marc-Olivier Méhu
Supporto tecnico e logistico : Manuel Goepfert
Aiuto per la traduzione : Arnaldo La Scala

Contatto : metmap@orbifly.com




FONTI E CREDITI :

   NOAA